createdAt,value
2023-04-28T00:00:04.647Z,11.13
2023-04-28T00:02:32.998Z,10.48
2023-04-28T00:05:00.888Z,9.68
2023-04-28T00:07:28.740Z,7.50
2023-04-28T00:09:57.069Z,7.55
2023-04-28T00:12:24.926Z,10.27
2023-04-28T00:14:52.674Z,8.63
2023-04-28T00:17:22.208Z,9.32
2023-04-28T00:19:51.500Z,7.88
2023-04-28T00:22:19.357Z,10.05
2023-04-28T00:24:47.254Z,11.52
2023-04-28T00:27:15.297Z,10.82
2023-04-28T00:29:43.128Z,9.88
2023-04-28T00:32:11.069Z,10.23
2023-04-28T00:34:40.538Z,8.93
2023-04-28T00:37:08.410Z,7.00
2023-04-28T00:39:36.097Z,9.43
2023-04-28T00:42:04.895Z,8.52
2023-04-28T00:44:32.864Z,13.25
2023-04-28T00:47:00.802Z,10.68
2023-04-28T00:49:28.694Z,11.63
2023-04-28T00:51:58.717Z,10.75
2023-04-28T00:54:27.077Z,11.82
2023-04-28T00:56:56.387Z,7.88
2023-04-28T00:59:24.103Z,9.93
2023-04-28T01:01:52.062Z,7.95
2023-04-28T01:04:22.305Z,7.90
2023-04-28T01:06:52.042Z,10.43
2023-04-28T01:09:21.410Z,8.00
2023-04-28T01:11:51.702Z,8.82
2023-04-28T01:14:33.454Z,7.47
2023-04-28T01:17:01.760Z,9.75
2023-04-28T01:19:29.781Z,8.68
2023-04-28T01:21:58.155Z,10.95
2023-04-28T01:24:28.243Z,9.80
2023-04-28T01:26:59.320Z,10.52
2023-04-28T01:29:27.827Z,10.02
2023-04-28T01:31:55.805Z,10.85
2023-04-28T01:34:23.715Z,5.65
2023-04-28T01:36:51.885Z,6.22
2023-04-28T01:39:20.353Z,9.32
2023-04-28T01:41:50.116Z,9.20
2023-04-28T01:44:18.741Z,11.15
2023-04-28T01:46:49.943Z,11.20
2023-04-28T01:49:18.304Z,9.02
2023-04-28T01:51:46.384Z,13.13
2023-04-28T01:54:15.350Z,11.10
2023-04-28T01:56:44.043Z,10.80
2023-04-28T01:59:16.200Z,11.25
2023-04-28T02:01:44.022Z,11.35
2023-04-28T02:04:11.937Z,12.27
2023-04-28T02:06:40.410Z,14.05
2023-04-28T02:09:08.332Z,12.77
2023-04-28T02:11:36.171Z,11.38
2023-04-28T02:14:04.292Z,14.80
2023-04-28T02:16:34.297Z,17.85
2023-04-28T02:19:02.089Z,11.48
2023-04-28T02:21:29.883Z,15.15
2023-04-28T02:23:58.182Z,16.42
2023-04-28T02:26:26.306Z,14.43
2023-04-28T02:28:54.378Z,14.95
2023-04-28T02:31:22.269Z,15.30
2023-04-28T02:33:51.872Z,20.25
2023-04-28T02:36:20.069Z,16.30
2023-04-28T02:38:48.235Z,20.17
2023-04-28T02:41:16.183Z,14.95
2023-04-28T02:43:44.170Z,14.48
2023-04-28T02:46:12.290Z,18.70
2023-04-28T02:48:40.784Z,20.45
2023-04-28T02:51:10.812Z,17.13
2023-04-28T02:53:39.205Z,17.45
2023-04-28T02:56:07.557Z,19.65
2023-04-28T02:58:35.686Z,17.80
2023-04-28T03:01:03.547Z,20.88
2023-04-28T03:03:31.488Z,21.23
2023-04-28T03:05:59.348Z,19.00
2023-04-28T03:08:28.584Z,16.70
2023-04-28T03:10:56.726Z,16.85
2023-04-28T03:13:25.477Z,18.85
2023-04-28T03:15:53.695Z,22.27
2023-04-28T03:18:22.477Z,19.55
2023-04-28T03:20:50.424Z,17.63
2023-04-28T03:23:18.626Z,22.60
2023-04-28T03:25:48.096Z,23.10
2023-04-28T03:28:16.270Z,23.27
2023-04-28T03:30:44.123Z,28.73
2023-04-28T03:33:11.879Z,21.80
2023-04-28T03:35:40.097Z,25.08
2023-04-28T03:38:08.046Z,24.95
2023-04-28T03:40:36.937Z,25.35
2023-04-28T03:43:28.678Z,25.42
2023-04-28T03:46:12.032Z,32.30
2023-04-28T03:48:39.772Z,28.08
2023-04-28T03:51:07.544Z,25.15
2023-04-28T03:53:35.342Z,22.75
2023-04-28T03:56:03.276Z,26.85
2023-04-28T03:58:32.423Z,25.98
2023-04-28T04:01:02.195Z,25.80
2023-04-28T04:03:30.137Z,31.02
2023-04-28T04:05:58.305Z,21.65
2023-04-28T04:08:26.451Z,31.92
2023-04-28T04:10:54.910Z,27.02
2023-04-28T04:13:23.194Z,37.65
2023-04-28T04:15:53.661Z,24.23
2023-04-28T04:18:24.060Z,24.60
2023-04-28T04:21:21.105Z,23.85
2023-04-28T04:23:51.243Z,24.75
2023-04-28T04:26:19.504Z,28.33
2023-04-28T04:28:49.841Z,26.23
2023-04-28T04:31:22.780Z,34.00
2023-04-28T04:33:52.136Z,27.65
2023-04-28T04:36:21.630Z,24.65
2023-04-28T04:38:52.649Z,23.30
2023-04-28T04:41:22.964Z,25.92
2023-04-28T04:43:57.011Z,29.13
2023-04-28T04:46:31.870Z,23.42
2023-04-28T04:48:59.999Z,27.50
2023-04-28T04:51:28.053Z,25.35
2023-04-28T04:53:56.564Z,22.73
2023-04-28T04:56:24.538Z,25.88
2023-04-28T04:58:53.357Z,23.35
2023-04-28T05:01:35.912Z,23.00
2023-04-28T05:04:03.842Z,22.15
2023-04-28T05:06:32.374Z,20.80
2023-04-28T05:09:00.183Z,23.13
2023-04-28T05:11:28.262Z,22.50
2023-04-28T05:13:56.451Z,23.10
2023-04-28T05:16:24.984Z,21.92
2023-04-28T05:19:03.627Z,18.25
2023-04-28T05:21:32.685Z,22.48
2023-04-28T05:24:00.987Z,19.20
2023-04-28T05:26:29.398Z,22.67
2023-04-28T05:29:01.777Z,20.25
2023-04-28T05:31:30.890Z,24.20
2023-04-28T05:33:59.824Z,19.15
2023-04-28T05:36:29.342Z,22.98
2023-04-28T05:38:57.804Z,27.80
2023-04-28T05:41:25.668Z,18.85
2023-04-28T05:43:53.579Z,19.15
2023-04-28T05:46:30.196Z,19.25
2023-04-28T05:49:00.140Z,20.15
2023-04-28T05:51:34.036Z,19.90
2023-04-28T05:54:03.054Z,20.50
2023-04-28T05:56:31.497Z,19.85
2023-04-28T05:59:04.019Z,20.17
2023-04-28T06:01:31.954Z,18.40
2023-04-28T06:03:59.923Z,22.10
2023-04-28T06:06:29.029Z,24.52
2023-04-28T06:08:58.273Z,19.58
2023-04-28T06:11:27.312Z,18.83
2023-04-28T06:13:55.424Z,19.08
2023-04-28T06:16:23.588Z,18.30
2023-04-28T06:18:53.245Z,20.58
2023-04-28T06:21:22.310Z,23.27
2023-04-28T06:23:50.419Z,17.42
2023-04-28T06:26:20.101Z,16.40
2023-04-28T06:28:47.946Z,21.20
2023-04-28T06:31:16.388Z,19.85
2023-04-28T06:33:44.226Z,18.17
2023-04-28T06:36:15.567Z,19.63
2023-04-28T06:38:44.510Z,22.13
2023-04-28T06:41:12.627Z,21.00
2023-04-28T06:43:43.814Z,15.65
2023-04-28T06:46:15.671Z,15.15
2023-04-28T06:48:44.007Z,16.92
2023-04-28T06:51:11.759Z,18.15
2023-04-28T06:53:39.766Z,24.80
2023-04-28T06:56:11.169Z,15.45
2023-04-28T06:58:39.516Z,17.85
2023-04-28T07:01:08.622Z,16.58
2023-04-28T07:03:36.454Z,21.33
2023-04-28T07:06:04.973Z,15.65
2023-04-28T07:08:33.158Z,20.48
2023-04-28T07:11:04.228Z,19.35
2023-04-28T07:13:32.040Z,18.90
2023-04-28T07:16:00.277Z,20.80
2023-04-28T07:18:29.954Z,17.90
2023-04-28T07:20:58.093Z,20.58
2023-04-28T07:23:26.432Z,16.83
2023-04-28T07:25:55.241Z,17.23
2023-04-28T07:28:23.732Z,20.65
2023-04-28T07:30:52.037Z,21.55
2023-04-28T07:33:20.020Z,20.38
2023-04-28T07:35:49.606Z,17.13
2023-04-28T07:38:18.487Z,17.52
2023-04-28T07:40:46.572Z,16.52
2023-04-28T07:43:14.736Z,21.92
2023-04-28T07:45:45.655Z,15.32
2023-04-28T07:48:13.691Z,17.73
2023-04-28T07:50:41.615Z,16.98
2023-04-28T07:53:10.878Z,19.45
2023-04-28T07:55:38.847Z,18.70
2023-04-28T07:58:06.615Z,21.15
2023-04-28T08:00:34.431Z,17.63
2023-04-28T08:03:02.530Z,16.60
2023-04-28T08:05:30.564Z,16.25
2023-04-28T08:07:58.409Z,18.92
2023-04-28T08:10:27.716Z,16.55
2023-04-28T08:12:55.515Z,18.20
2023-04-28T08:15:23.668Z,16.60
2023-04-28T08:17:51.634Z,17.38
2023-04-28T08:20:24.474Z,23.23
2023-04-28T08:22:52.883Z,17.23
2023-04-28T08:25:20.727Z,19.85
2023-04-28T08:27:50.019Z,23.83
2023-04-28T08:30:17.946Z,22.13
2023-04-28T08:32:46.063Z,21.20
2023-04-28T08:35:15.450Z,19.67
2023-04-28T08:37:43.270Z,21.70
2023-04-28T08:40:11.566Z,19.83
2023-04-28T08:42:39.811Z,16.48
2023-04-28T08:45:14.648Z,21.20
2023-04-28T08:47:46.111Z,24.52
2023-04-28T08:50:17.994Z,21.92
2023-04-28T08:52:45.914Z,19.13
2023-04-28T08:55:14.455Z,19.60
2023-04-28T08:57:45.785Z,19.00
2023-04-28T09:00:16.002Z,17.58
2023-04-28T09:02:44.260Z,19.33
2023-04-28T09:05:13.804Z,17.75
2023-04-28T09:07:42.638Z,18.40
2023-04-28T09:10:19.148Z,18.83
2023-04-28T09:12:47.790Z,20.05
2023-04-28T09:15:33.947Z,29.08
2023-04-28T09:18:03.385Z,18.55
2023-04-28T09:20:32.649Z,20.75
2023-04-28T09:23:15.271Z,17.85
2023-04-28T09:25:57.279Z,20.17
2023-04-28T09:28:25.267Z,19.23
2023-04-28T09:30:54.646Z,21.83
2023-04-28T09:33:22.766Z,19.98
2023-04-28T09:35:50.787Z,18.52
2023-04-28T09:38:20.614Z,17.60
2023-04-28T09:40:57.009Z,21.13
2023-04-28T09:43:26.706Z,19.90
2023-04-28T09:45:56.805Z,22.65
2023-04-28T09:48:33.676Z,18.25
2023-04-28T09:51:02.889Z,17.83
2023-04-28T09:53:31.859Z,19.23
2023-04-28T09:56:02.516Z,20.20
2023-04-28T09:58:32.919Z,25.33
2023-04-28T10:01:03.141Z,29.30
2023-04-28T10:03:32.242Z,21.40
2023-04-28T10:06:00.534Z,21.33
2023-04-28T10:08:28.603Z,19.05
2023-04-28T10:10:57.808Z,18.88
2023-04-28T10:13:26.021Z,17.70
2023-04-28T10:15:55.702Z,20.65
2023-04-28T10:18:25.802Z,19.35
2023-04-28T10:20:58.750Z,19.35
2023-04-28T10:23:52.848Z,17.55
2023-04-28T10:26:21.911Z,21.65
2023-04-28T10:28:51.109Z,21.20
2023-04-28T10:31:21.167Z,18.10
2023-04-28T10:33:50.866Z,22.17
2023-04-28T10:36:48.676Z,20.63
2023-04-28T10:39:16.851Z,17.05
2023-04-28T10:41:46.558Z,21.50
2023-04-28T10:44:45.436Z,22.58
2023-04-28T10:47:13.506Z,16.55
2023-04-28T10:50:10.538Z,18.48
2023-04-28T10:53:00.531Z,18.83
2023-04-28T10:55:32.907Z,14.38
2023-04-28T10:58:32.581Z,20.40
2023-04-28T11:01:28.394Z,23.55
2023-04-28T11:04:08.365Z,21.27
2023-04-28T11:06:40.640Z,19.10
2023-04-28T11:09:38.807Z,18.48
2023-04-28T11:12:10.794Z,18.48
2023-04-28T11:14:40.720Z,18.58
2023-04-28T11:17:13.094Z,31.55
2023-04-28T11:19:42.661Z,19.67
2023-04-28T11:22:18.254Z,20.63
2023-04-28T11:24:57.712Z,24.38
2023-04-28T11:27:25.928Z,26.65
2023-04-28T11:29:54.272Z,19.20
2023-04-28T11:32:29.015Z,19.80
2023-04-28T11:34:57.484Z,26.38
2023-04-28T11:37:27.340Z,20.60
2023-04-28T11:39:55.607Z,26.48
2023-04-28T11:42:25.914Z,19.83
2023-04-28T11:44:55.438Z,18.48
2023-04-28T11:47:31.389Z,21.67
2023-04-28T11:49:59.541Z,18.52
2023-04-28T11:52:28.721Z,21.60
2023-04-28T11:54:57.893Z,22.25
2023-04-28T11:57:26.626Z,21.67
2023-04-28T11:59:54.589Z,16.70
2023-04-28T12:02:28.425Z,24.65
2023-04-28T12:04:56.681Z,21.20
2023-04-28T12:07:25.102Z,20.75
2023-04-28T12:10:13.476Z,27.00
2023-04-28T12:12:50.775Z,18.95
2023-04-28T12:15:22.378Z,21.83
2023-04-28T12:17:51.767Z,18.60
2023-04-28T12:20:36.499Z,24.13
2023-04-28T12:23:05.439Z,25.40
2023-04-28T12:25:35.989Z,23.02
2023-04-28T12:28:05.526Z,19.90
2023-04-28T12:30:35.051Z,20.25
2023-04-28T12:33:03.275Z,22.05
2023-04-28T12:35:31.440Z,19.98
2023-04-28T12:37:59.506Z,17.67
2023-04-28T12:40:27.450Z,21.42
2023-04-28T12:42:56.951Z,24.60
2023-04-28T12:45:24.906Z,19.92
2023-04-28T12:47:52.657Z,20.65
2023-04-28T12:50:20.719Z,22.25
2023-04-28T12:52:48.480Z,26.15
2023-04-28T12:55:16.528Z,20.65
2023-04-28T12:57:44.304Z,24.75
2023-04-28T13:00:16.301Z,20.45
2023-04-28T13:02:45.395Z,24.23
2023-04-28T13:05:14.451Z,26.38
2023-04-28T13:07:42.377Z,24.73
2023-04-28T13:10:10.822Z,25.23
2023-04-28T13:12:38.815Z,22.45
2023-04-28T13:15:07.962Z,21.80
2023-04-28T13:17:37.153Z,28.30
2023-04-28T13:20:06.737Z,19.13
2023-04-28T13:22:34.747Z,24.15
2023-04-28T13:25:02.812Z,26.80
2023-04-28T13:27:31.303Z,21.52
2023-04-28T13:29:59.320Z,20.23
2023-04-28T13:32:28.134Z,21.75
2023-04-28T13:34:57.806Z,21.05
2023-04-28T13:37:25.638Z,19.98
2023-04-28T13:39:53.402Z,29.52
2023-04-28T13:42:21.642Z,25.00
2023-04-28T13:44:49.540Z,31.77
2023-04-28T13:47:17.322Z,18.33
2023-04-28T13:49:45.064Z,21.55
2023-04-28T13:52:14.166Z,18.92
2023-04-28T13:54:43.034Z,21.63
2023-04-28T13:57:13.442Z,24.63
2023-04-28T13:59:41.355Z,21.48
2023-04-28T14:02:09.593Z,20.00
2023-04-28T14:04:37.735Z,27.90
2023-04-28T14:07:05.697Z,31.00
2023-04-28T14:09:34.798Z,22.27
2023-04-28T14:12:02.764Z,26.33
2023-04-28T14:14:30.928Z,23.52
2023-04-28T14:16:58.918Z,27.23
2023-04-28T14:19:28.173Z,21.02
2023-04-28T14:21:56.412Z,23.23
2023-04-28T14:24:24.490Z,25.52
2023-04-28T14:26:53.674Z,25.08
2023-04-28T14:29:21.551Z,26.13
2023-04-28T14:31:49.386Z,23.75
2023-04-28T14:34:17.147Z,25.52
2023-04-28T14:36:45.003Z,23.75
2023-04-28T14:39:12.827Z,23.38
2023-04-28T14:41:41.098Z,24.33
2023-04-28T14:44:10.547Z,28.67
2023-04-28T14:46:38.654Z,26.42
2023-04-28T14:49:09.205Z,22.23
2023-04-28T14:51:37.004Z,24.02
2023-04-28T14:54:05.470Z,24.98
2023-04-28T14:56:33.987Z,26.92
2023-04-28T14:59:01.789Z,25.13
2023-04-28T15:01:32.065Z,26.73
2023-04-28T15:04:00.240Z,22.10
2023-04-28T15:06:28.213Z,28.13
2023-04-28T15:08:56.485Z,30.25
2023-04-28T15:11:24.743Z,36.45
2023-04-28T15:13:52.573Z,28.73
2023-04-28T15:16:20.932Z,27.60
2023-04-28T15:18:50.307Z,26.98
2023-04-28T15:21:18.138Z,26.38
2023-04-28T15:23:46.247Z,25.17
2023-04-28T15:26:13.986Z,26.77
2023-04-28T15:28:41.938Z,26.98
2023-04-28T15:31:09.923Z,27.23
2023-04-28T15:33:38.193Z,26.50
2023-04-28T15:36:08.579Z,25.52
2023-04-28T15:38:36.764Z,23.67
2023-04-28T15:41:05.482Z,24.10
2023-04-28T15:43:33.188Z,24.40
2023-04-28T15:46:02.270Z,25.48
2023-04-28T15:48:30.124Z,23.00
2023-04-28T15:50:58.684Z,24.65
2023-04-28T15:53:27.966Z,24.95
2023-04-28T15:55:56.000Z,24.67
2023-04-28T15:58:26.742Z,27.02
2023-04-28T16:00:54.604Z,24.60
2023-04-28T16:03:22.662Z,24.55
2023-04-28T16:05:51.100Z,28.25
2023-04-28T16:08:19.556Z,32.38
2023-04-28T16:10:48.659Z,28.15
2023-04-28T16:13:16.869Z,29.83
2023-04-28T16:15:45.859Z,30.08
2023-04-28T16:18:13.936Z,28.13
2023-04-28T16:20:42.156Z,28.90
2023-04-28T16:23:12.694Z,26.73
2023-04-28T16:25:44.766Z,28.58
2023-04-28T16:28:13.981Z,27.60
2023-04-28T16:30:41.899Z,24.65
2023-04-28T16:33:09.903Z,26.35
2023-04-28T16:35:38.163Z,27.27
2023-04-28T16:38:06.052Z,24.80
2023-04-28T16:40:33.915Z,23.90
2023-04-28T16:43:02.238Z,23.75
2023-04-28T16:45:31.895Z,22.50
2023-04-28T16:47:59.843Z,22.65
2023-04-28T16:50:27.949Z,24.20
2023-04-28T16:52:55.855Z,24.55
2023-04-28T16:55:24.158Z,22.85
2023-04-28T16:57:52.164Z,26.13
2023-04-28T17:00:21.378Z,25.20
2023-04-28T17:02:50.744Z,23.10
2023-04-28T17:05:18.862Z,27.15
2023-04-28T17:07:46.606Z,22.75
2023-04-28T17:10:14.517Z,21.90
2023-04-28T17:12:45.201Z,21.40
2023-04-28T17:15:17.174Z,20.67
2023-04-28T17:17:45.483Z,26.52
2023-04-28T17:20:20.091Z,25.60
2023-04-28T17:22:48.682Z,25.60
2023-04-28T17:25:17.551Z,25.42
2023-04-28T17:27:45.430Z,24.70
2023-04-28T17:30:13.622Z,19.60
2023-04-28T17:32:41.562Z,24.15
2023-04-28T17:35:10.415Z,22.70
2023-04-28T17:37:39.747Z,22.92
2023-04-28T17:40:09.059Z,25.92
2023-04-28T17:42:37.141Z,24.45
2023-04-28T17:45:07.395Z,26.48
2023-04-28T17:47:35.209Z,27.67
2023-04-28T17:50:03.935Z,28.23
2023-04-28T17:52:32.367Z,24.42
2023-04-28T17:55:01.487Z,30.60
2023-04-28T17:57:29.503Z,29.73
2023-04-28T17:59:57.990Z,31.58
2023-04-28T18:02:26.655Z,32.10
2023-04-28T18:04:54.668Z,23.00
2023-04-28T18:07:22.631Z,23.27
2023-04-28T18:09:50.515Z,28.88
2023-04-28T18:12:19.927Z,32.83
2023-04-28T18:14:48.038Z,29.60
2023-04-28T18:17:15.916Z,36.60
2023-04-28T18:19:43.823Z,29.00
2023-04-28T18:22:12.029Z,32.47
2023-04-28T18:24:39.904Z,35.22
2023-04-28T18:27:07.648Z,35.53
2023-04-28T18:29:36.806Z,38.85
2023-04-28T18:32:05.146Z,38.42
2023-04-28T18:34:33.205Z,30.92
2023-04-28T18:37:01.048Z,33.63
2023-04-28T18:39:29.256Z,32.60
2023-04-28T18:41:58.641Z,38.60
2023-04-28T18:44:26.506Z,34.95
2023-04-28T18:46:56.065Z,34.38
2023-04-28T18:49:24.968Z,35.70
2023-04-28T18:51:52.727Z,34.95
2023-04-28T18:54:20.641Z,36.35
2023-04-28T18:56:49.023Z,32.72
2023-04-28T18:59:16.990Z,36.35
2023-04-28T19:01:44.838Z,31.42
2023-04-28T19:04:14.673Z,38.90
2023-04-28T19:06:44.019Z,39.88
2023-04-28T19:09:12.085Z,43.30
2023-04-28T19:11:40.643Z,35.65
2023-04-28T19:14:08.868Z,41.00
2023-04-28T19:16:36.765Z,40.03
2023-04-28T19:19:04.782Z,36.58
2023-04-28T19:21:43.145Z,37.33
2023-04-28T19:24:11.835Z,37.95
2023-04-28T19:26:40.716Z,39.15
2023-04-28T19:29:08.496Z,40.33
2023-04-28T19:31:36.275Z,40.22
2023-04-28T19:34:04.444Z,42.08
2023-04-28T19:36:32.803Z,38.92
2023-04-28T19:39:02.090Z,38.22
2023-04-28T19:41:29.966Z,45.00
2023-04-28T19:43:58.557Z,39.65
2023-04-28T19:46:29.577Z,38.10
2023-04-28T19:49:00.421Z,44.20
2023-04-28T19:51:36.850Z,44.15
2023-04-28T19:54:06.130Z,45.42
2023-04-28T19:56:35.164Z,40.63
2023-04-28T19:59:03.552Z,45.28
2023-04-28T20:01:31.448Z,42.90
2023-04-28T20:04:00.458Z,39.22
2023-04-28T20:06:28.781Z,45.55
2023-04-28T20:08:56.697Z,44.88
2023-04-28T20:11:26.416Z,43.55
2023-04-28T20:13:54.544Z,42.88
2023-04-28T20:16:25.704Z,45.00
2023-04-28T20:18:53.845Z,40.58
2023-04-28T20:21:21.747Z,46.38
2023-04-28T20:23:50.655Z,45.10
2023-04-28T20:26:18.639Z,37.13
2023-04-28T20:28:48.650Z,44.97
2023-04-28T20:31:16.714Z,44.33
2023-04-28T20:33:44.451Z,41.88
2023-04-28T20:36:13.966Z,54.65
2023-04-28T20:38:42.427Z,43.55
2023-04-28T20:41:10.409Z,44.17
2023-04-28T20:43:38.838Z,47.00
2023-04-28T20:46:12.967Z,40.97
2023-04-28T20:48:41.160Z,46.15
2023-04-28T20:51:10.815Z,45.80
2023-04-28T20:53:39.647Z,39.88
2023-04-28T20:56:08.454Z,45.15
2023-04-28T20:58:36.380Z,45.90
2023-04-28T21:01:04.301Z,42.17
2023-04-28T21:03:33.556Z,44.45
2023-04-28T21:06:01.334Z,42.33
2023-04-28T21:08:30.135Z,52.50
2023-04-28T21:10:58.084Z,51.90
2023-04-28T21:13:25.947Z,41.13
2023-04-28T21:15:56.033Z,43.78
2023-04-28T21:18:24.024Z,41.65
2023-04-28T21:20:54.735Z,39.45
2023-04-28T21:23:22.756Z,42.78
2023-04-28T21:25:50.806Z,38.30
2023-04-28T21:28:18.658Z,48.78
2023-04-28T21:30:46.405Z,44.28
2023-04-28T21:33:14.253Z,44.03
2023-04-28T21:35:42.146Z,44.63
2023-04-28T21:38:12.228Z,38.08
2023-04-28T21:40:40.029Z,50.97
2023-04-28T21:43:08.259Z,37.92
2023-04-28T21:45:36.228Z,42.85
2023-04-28T21:48:04.127Z,43.13
2023-04-28T21:50:31.969Z,41.60
2023-04-28T21:52:59.751Z,44.25
2023-04-28T21:55:28.889Z,44.38
2023-04-28T21:57:58.800Z,35.15
2023-04-28T22:00:28.195Z,40.10
2023-04-28T22:02:58.396Z,39.03
2023-04-28T22:05:26.302Z,47.35
2023-04-28T22:07:54.054Z,51.67
2023-04-28T22:10:22.762Z,46.08
2023-04-28T22:12:51.844Z,44.15
2023-04-28T22:15:19.725Z,46.72
2023-04-28T22:17:47.728Z,35.15
2023-04-28T22:20:15.573Z,44.58
2023-04-28T22:22:43.414Z,37.85
2023-04-28T22:25:11.610Z,49.08
2023-04-28T22:27:39.994Z,37.45
2023-04-28T22:30:10.820Z,43.55
2023-04-28T22:32:38.595Z,49.90
2023-04-28T22:35:07.424Z,50.28
2023-04-28T22:37:35.496Z,41.45
2023-04-28T22:40:04.660Z,43.10
2023-04-28T22:42:32.471Z,41.72
2023-04-28T22:45:02.586Z,41.55
2023-04-28T22:47:32.794Z,40.30
2023-04-28T22:50:00.583Z,50.03
2023-04-28T22:52:28.634Z,36.38
2023-04-28T22:54:56.688Z,45.83
2023-04-28T22:57:24.485Z,34.97
2023-04-28T22:59:52.597Z,41.47
2023-04-28T23:02:21.024Z,39.25
2023-04-28T23:04:50.571Z,39.83
2023-04-28T23:07:18.462Z,35.53
2023-04-28T23:09:46.181Z,38.35
2023-04-28T23:12:13.847Z,32.90
2023-04-28T23:14:41.616Z,41.75
2023-04-28T23:17:09.375Z,35.53
2023-04-28T23:19:38.900Z,35.72
2023-04-28T23:22:08.505Z,35.53
2023-04-28T23:24:37.081Z,39.67
2023-04-28T23:27:05.322Z,43.90
2023-04-28T23:29:33.522Z,42.75
2023-04-28T23:32:01.294Z,37.45
2023-04-28T23:34:31.102Z,42.80
2023-04-28T23:37:00.374Z,40.88
2023-04-28T23:39:30.118Z,41.72
2023-04-28T23:41:58.638Z,40.72
2023-04-28T23:44:26.394Z,35.88
2023-04-28T23:46:56.010Z,45.67
2023-04-28T23:49:23.970Z,44.25
2023-04-28T23:51:51.660Z,39.17
2023-04-28T23:54:19.358Z,43.08
2023-04-28T23:56:48.396Z,42.85
2023-04-28T23:59:16.098Z,57.92
